Latest Weather Observations for Pearce

IDW60901

Issued at 4:51 am WST Friday 30 October 2020 (issued every 10 minutes, with the page automatically refreshed every 10 minutes)

About weather observations | Map of Perth area stations | Latest observations for Perth area | Other Formats
Station Details ID: 009053 Name: PEARCE RAAF Lat: -31.67 Lon: 116.02 Height: 40.0 m
Data from the previous 72 hours. | See also: Recent months at Pearce
Date/Time
WST
Temp
°C
App
Temp
°C
Dew
Point
°C
Rel
Hum
%
Delta-T
°C
Wind Press
QNH
hPa
Press
MSL
hPa
Rain since
9am
mm
Dir  Spd
km/h
Gust
km/h
Spd
kts
Gust
kts
30/04:30am 19.2 13.7 4.2 37 7.2 E 22 37 12 20 1013.2 1013.2 28.4
30/04:00am 19.6 13.3 3.7 35 7.6 E 26 41 14 22 1013.1 1013.1 24.2
30/03:30am 20.3 13.8 2.6 31 8.3 E 26 43 14 23 1013.1 1013.1 14.4
30/03:00am 21.2 13.7 1.0 26 9.2 E 30 43 16 23 1013.1 1013.1 12.8
30/02:30am 22.0 13.7 -0.1 23 9.9 E 33 52 18 28 1013.1 1013.1 12.8
30/02:21am 22.1 14.0 -0.6 22 10.1 E 32 52 17 28 1013.1 1013.1 12.8
30/02:00am 22.5 15.8 -0.9 21 10.4 E 24 39 13 21 1013.5 1013.5 12.8
30/01:30am 23.5 16.9 -0.7 20 10.9 E 24 35 13 19 1013.6 1013.6 12.8
30/01:04am 23.9 16.5 -0.4 20 11.0 E 28 46 15 25 1014.1 1014.1 12.8
30/01:00am 23.9 16.9 -0.4 20 11.0 E 26 46 14 25 1014.3 1014.3 12.8
30/12:59am 24.0 16.7 -0.3 20 11.0 E 28 46 15 25 1014.3 1014.3 12.8
30/12:30am 24.4 17.0 -0.7 19 11.4 E 28 43 15 23 1014.7 1014.7 12.8
30/12:00am 24.4 17.0 -0.7 19 11.4 E 28 39 15 21 1014.8 1014.8 12.8
 
Date/Time
WST
Temp
°C
App
Temp
°C
Dew
Point
°C
Rel
Hum
%
Delta-T
°C
Wind Press
QNH
hPa
Press
MSL
hPa
Rain since
9am
mm
Dir  Spd
km/h
Gust
km/h
Spd
kts
Gust
kts
29/11:30pm 24.5 16.7 -0.6 19 11.4 E 30 43 16 23 1015.1 1015.0 12.8
29/11:00pm 24.9 17.1 -1.0 18 11.7 E 30 39 16 21 1015.1 1015.0 12.8
29/10:30pm 25.5 17.7 -0.5 18 11.9 E 30 44 16 24 1015.3 1015.2 12.8
29/10:00pm 26.0 17.9 -0.1 18 12.1 E 32 43 17 23 1015.5 1015.4 12.8
29/09:46pm 26.4 19.1 0.2 18 12.2 E 28 46 15 25 1015.6 1015.5 12.8
29/09:30pm 26.3 19.0 0.1 18 12.2 E 28 37 15 20 1015.7 1015.6 12.8
29/09:00pm 25.1 21.0 2.5 23 10.9 SE 13 20 7 11 1015.9 1015.8 9.6
29/08:30pm 23.2 20.1 3.7 28 9.5 S 9 13 5 7 1016.0 1015.9 7.6
29/08:00pm 23.3 19.9 3.8 28 9.5 SSW 11 17 6 9 1015.6 1015.5 7.2
29/07:30pm 24.1 20.5 5.0 29 9.6 S 13 17 7 9 1015.0 1014.9 4.8
29/07:00pm 25.9 22.6 4.4 25 10.8 SSE 11 15 6 8 1014.7 1014.7 3.4
29/06:30pm 28.5 24.4 4.1 21 12.4 SE 15 19 8 10 1014.4 1014.4 2.2
29/06:00pm 30.3 25.4 4.1 19 13.5 ESE 19 26 10 14 1014.4 1014.4 1.8
29/05:30pm 31.2 26.3 4.1 18 14.0 E 19 26 10 14 1014.5 1014.5 1.6
29/05:00pm 31.7 25.9 4.5 18 14.2 ESE 24 33 13 18 1014.5 1014.5 1.0
29/04:30pm 32.0 26.3 4.7 18 14.3 E 24 33 13 18 1014.8 1014.8 1.0
29/04:00pm 31.9 26.5 4.6 18 14.3 E 22 32 12 17 1015.0 1014.9 1.0
29/03:30pm 32.3 27.7 6.5 20 14.0 E 20 30 11 16 1015.1 1015.0 1.0
29/03:00pm 31.7 27.2 6.0 20 13.7 ESE 19 28 10 15 1015.3 1015.2 1.0
29/02:30pm 31.6 25.9 6.6 21 13.5 ESE 26 35 14 19 1015.6 1015.5 1.0
29/02:00pm 31.1 26.2 6.9 22 13.1 E 22 32 12 17 1016.1 1016.0 1.0
29/01:30pm 30.7 26.0 7.8 24 12.6 E 22 35 12 19 1016.4 1016.3 1.0
29/01:04pm 30.1 24.3 7.9 25 12.2 E 28 46 15 25 1016.7 1016.6 1.0
29/01:00pm 29.5 23.2 7.4 25 11.9 E 30 46 16 25 1016.7 1016.6 1.0
29/12:30pm 29.7 24.0 8.2 26 11.8 E 28 39 15 21 1017.1 1017.0 1.0
29/12:00pm 28.0 22.6 7.8 28 10.9 E 26 41 14 22 1017.6 1017.5 0.6
29/11:34am 26.7 20.7 7.2 29 10.4 E 28 48 15 26 1018.3 1018.2 0.4
29/11:30am 26.5 21.0 7.5 30 10.1 E 26 44 14 24 1018.5 1018.4 0.4
29/11:00am 25.9 20.1 8.0 32 9.6 E 28 39 15 21 1019.1 1019.0 0.4
29/10:30am 24.2 19.1 7.8 35 8.7 ENE 24 43 13 23 1019.9 1019.8 0.0
29/10:00am 23.0 17.9 7.5 37 8.1 E 24 39 13 21 1020.3 1020.2 0.0
29/09:30am 22.2 15.7 8.3 41 7.3 E 32 44 17 24 1020.5 1020.4 0.0
29/09:00am 20.5 13.1 8.2 45 6.4 E 37 48 20 26 1020.4 1020.3 34.4
29/08:30am 19.3 11.5 8.3 49 5.7 ENE 39 61 21 33 1020.4 1020.3 33.8
29/08:00am 18.6 10.1 8.6 52 5.2 E 43 61 23 33 1020.2 1020.1 33.8
29/07:30am 17.5 9.1 8.9 57 4.5 E 43 61 23 33 1020.3 1020.2 33.8
29/07:02am 16.5 9.2 8.7 60 4.0 ENE 37 61 20 33 1020.5 1020.4 33.8
29/07:00am 16.4 8.8 8.9 61 3.9 ENE 39 52 21 28 1020.5 1020.4 33.8
29/06:33am 15.4 8.0 8.4 63 3.5 E 37 56 20 30 1020.3 1020.2 33.6
29/06:30am 15.3 7.5 8.3 63 3.5 E 39 52 21 28 1020.3 1020.2 33.6
29/06:00am 14.6 7.5 7.9 64 3.3 ENE 35 52 19 28 1020.1 1020.0 33.6
29/05:37am 14.5 7.3 7.5 63 3.5 E 35 56 19 30 1019.6 1019.5 33.6
29/05:30am 14.5 7.3 7.5 63 3.5 E 35 50 19 27 1019.7 1019.6 33.6
29/05:00am 14.7 6.7 7.3 61 3.6 E 39 57 21 31 1019.1 1019.0 33.6
29/04:30am 14.7 7.4 7.3 61 3.6 E 35 56 19 30 1019.1 1019.0 33.6
29/04:19am 14.9 8.6 7.5 61 3.7 E 30 56 16 30 1019.2 1019.1 33.6
29/04:00am 14.9 9.8 7.5 61 3.7 E 24 41 13 22 1019.4 1019.3 33.6
29/03:30am 15.1 10.0 7.6 61 3.7 E 24 39 13 21 1019.2 1019.1 33.6
29/03:00am 15.4 10.4 7.9 61 3.8 E 24 43 13 23 1019.3 1019.2 33.6
29/02:30am 15.7 11.7 8.2 61 3.8 E 19 32 10 17 1019.4 1019.3 33.6
29/02:00am 16.3 12.2 8.5 60 4.0 E 20 39 11 21 1019.2 1019.1 33.2
29/01:30am 17.0 12.6 8.9 59 4.2 E 22 43 12 23 1018.9 1018.8 33.2
29/01:00am 17.7 13.9 9.1 57 4.5 E 19 30 10 16 1019.0 1018.9 32.0
29/12:30am 18.4 13.4 9.7 57 4.6 ESE 26 37 14 20 1018.8 1018.7 32.0
29/12:19am 18.5 13.3 10.1 58 4.5 ESE 28 41 15 22 1018.8 1018.7 29.4
29/12:00am 13.8 13.3 9.5 75 2.2 NNE 2 9 1 5 1019.0 1018.9 28.4
 
Date/Time
WST
Temp
°C
App
Temp
°C
Dew
Point
°C
Rel
Hum
%
Delta-T
°C
Wind Press
QNH
hPa
Press
MSL
hPa
Rain since
9am
mm
Dir  Spd
km/h
Gust
km/h
Spd
kts
Gust
kts
28/11:30pm 15.4 14.5 10.8 74 2.4 SE 6 7 3 4 1019.1 1019.0 28.2
28/11:00pm 15.6 15.2 11.0 74 2.5 SE 4 7 2 4 1019.1 1019.0 28.2
28/10:30pm 15.6 14.2 11.0 74 2.5 SE 9 11 5 6 1019.2 1019.1 28.2
28/10:00pm 15.4 14.0 10.8 74 2.4 SSE 9 13 5 7 1019.4 1019.3 28.2
28/09:30pm 15.9 13.4 10.9 72 2.7 SSE 15 20 8 11 1019.6 1019.5 27.8
28/09:00pm 16.3 13.4 11.0 71 2.8 SSE 17 20 9 11 1019.7 1019.6 14.4
28/08:30pm 16.8 13.9 11.1 69 3.1 SSE 17 24 9 13 1019.6 1019.5 9.6
28/08:00pm 17.0 14.2 11.3 69 3.1 SSE 17 22 9 12 1019.4 1019.3 9.6
28/07:30pm 17.5 15.0 10.9 65 3.6 S 15 19 8 10 1019.1 1019.0 1.0
28/07:00pm 18.2 14.4 9.8 58 4.4 S 20 26 11 14 1018.9 1018.8 1.0
28/06:30pm 19.1 14.3 9.0 52 5.3 S 24 32 13 17 1018.5 1018.4 1.0
28/06:00pm 20.4 15.6 8.7 47 6.1 SSW 24 32 13 17 1018.1 1018.0 1.0
28/05:30pm 21.9 17.0 8.4 42 7.1 SSW 24 32 13 17 1018.0 1017.9 0.8
28/05:00pm 22.8 18.2 8.1 39 7.7 SSW 22 32 12 17 1017.7 1017.6 0.8
28/04:30pm 23.2 17.5 8.5 39 7.8 SSW 28 35 15 19 1017.5 1017.4 0.6
28/04:00pm 23.7 18.4 9.7 41 7.6 SSW 28 41 15 22 1017.2 1017.1 0.6
28/03:30pm 24.2 18.6 10.1 41 7.8 SW 30 37 16 20 1017.1 1017.0 0.6
28/03:00pm 25.0 20.7 10.8 41 7.9 SSW 24 33 13 18 1017.2 1017.1 0.4
28/02:30pm 25.8 21.9 10.8 39 8.4 S 22 33 12 18 1017.2 1017.1 0.4
28/02:00pm 25.1 22.5 10.6 40 8.1 SSW 15 30 8 16 1017.4 1017.3 0.4
28/01:30pm 26.2 23.5 9.1 34 9.4 SSW 13 24 7 13 1017.6 1017.5 0.4
28/01:00pm 26.1 22.7 9.0 34 9.3 SSE 17 35 9 19 1017.9 1017.8 0.4
28/12:30pm 25.1 22.1 9.4 37 8.6 SSE 15 24 8 13 1018.0 1017.9 0.2
28/12:00pm 24.0 20.1 8.8 38 8.2 S 19 28 10 15 1018.3 1018.2 0.0
28/11:30am 25.0 22.6 10.1 39 8.2 S 13 24 7 13 1018.7 1018.6 0.0
28/11:00am 23.5 20.4 10.2 43 7.3 S 17 22 9 12 1019.1 1019.0 0.0
28/10:30am 22.7 19.7 10.5 46 6.7 S 17 22 9 12 1019.3 1019.2 0.0
28/10:00am 22.4 20.6 12.1 52 5.8 SE 13 22 7 12 1019.6 1019.5 0.0
28/09:30am 21.2 18.6 12.1 56 5.1 SSE 17 22 9 12 1019.7 1019.6 0.0
28/09:00am 20.4 18.5 11.9 58 4.7 SSE 13 17 7 9 1019.7 1019.6 4.8
28/08:30am 19.5 17.1 12.8 65 3.8 SSE 17 24 9 13 1019.7 1019.6 4.8
28/08:00am 19.1 18.8 13.3 69 3.3 SSE 7 13 4 7 1019.7 1019.6 4.8
28/07:30am 19.4 19.3 13.3 68 3.5 ESE 6 11 3 6 1019.3 1019.2 4.8
28/07:00am 18.5 18.6 13.8 74 2.7 E 6 9 3 5 1019.0 1018.9 4.8
28/06:30am 16.2 16.6 13.7 85 1.4 N 4 7 2 4 1018.6 1018.5 4.8
28/06:00am 16.2 14.8 13.3 83 1.6 ENE 13 17 7 9 1018.1 1018.0 4.8
28/05:30am 15.5 15.0 13.7 89 1.0 ENE 9 15 5 8 1017.8 1017.7 4.8
28/05:00am 15.1 16.2 13.5 90 0.9 CALM 0 0 0 0 1017.5 1017.4 4.8
28/04:30am 14.5 15.3 12.5 88 1.1 CALM 0 0 0 0 1017.1 1017.0 4.8
28/04:00am 16.0 17.4 14.4 90 0.9 CALM 0 0 0 0 1016.7 1016.6 4.8
28/03:30am 16.0 16.7 14.5 91 0.9 S 4 6 2 3 1016.5 1016.4 4.0
28/03:00am 15.4 15.5 13.9 91 0.8 SSW 6 7 3 4 1016.1 1016.0 3.0
28/02:30am 15.1 14.9 13.5 90 0.9 S 7 9 4 5 1015.8 1015.7 3.0
28/02:00am 16.0 17.0 14.4 90 0.9 SSE 2 7 1 4 1015.6 1015.5 3.0
28/01:30am 15.9 17.3 14.3 90 0.9 CALM 0 4 0 2 1015.7 1015.6 3.0
28/01:00am 15.8 14.9 13.8 88 1.1 S 11 13 6 7 1015.9 1015.8 3.0
28/12:30am 17.1 15.7 14.6 85 1.4 SSW 15 19 8 10 1016.2 1016.1 3.0
28/12:00am 16.8 13.7 14.6 87 1.3 SSW 24 33 13 18 1016.3 1016.2 2.2
 
Date/Time
WST
Temp
°C
App
Temp
°C
Dew
Point
°C
Rel
Hum
%
Delta-T
°C
Wind Press
QNH
hPa
Press
MSL
hPa
Rain since
9am
mm
Dir  Spd
km/h
Gust
km/h
Spd
kts
Gust
kts
27/11:52pm 17.0 14.8 15.0 88 1.2 SW 20 32 11 17 1016.3 1016.2 1.8
27/11:39pm 17.0 14.8 14.3 84 1.5 SW 19 26 10 14 1016.3 1016.2 1.8
27/11:30pm 17.5 17.9 12.6 73 2.7 NW 2 15 1 8 1016.2 1016.1 0.8
27/11:00pm 17.2 16.7 12.1 72 2.8 NW 6 9 3 5 1016.1 1016.0 0.6
27/10:30pm 17.2 16.8 12.3 73 2.7 W 6 9 3 5 1016.2 1016.1 0.6
27/10:00pm 16.3 15.8 11.9 75 2.4 W 6 9 3 5 1016.2 1016.1 0.6
27/09:30pm 17.2 17.7 11.5 69 3.1 CALM 0 0 0 0 1016.3 1016.2 0.6
27/09:00pm 17.4 17.4 11.2 67 3.4 W 2 6 1 3 1016.4 1016.3 0.6
27/08:30pm 18.2 17.5 12.0 67 3.4 WSW 7 11 4 6 1016.4 1016.3 0.6
27/08:00pm 17.2 16.4 11.7 70 3.0 WSW 7 9 4 5 1016.2 1016.1 0.6
27/07:30pm 17.6 15.6 11.6 68 3.3 WSW 13 17 7 9 1016.2 1016.1 0.6
27/07:00pm 18.1 15.6 11.2 64 3.7 WSW 15 19 8 10 1015.8 1015.7 0.4
27/06:30pm 19.2 15.8 10.5 57 4.7 WSW 19 24 10 13 1015.3 1015.2 0.4
27/06:00pm 20.3 16.9 10.7 54 5.2 SW 19 24 10 13 1014.8 1014.8 0.4
27/05:30pm 21.1 17.6 10.9 52 5.6 SW 20 26 11 14 1014.4 1014.4 0.4
27/05:00pm 22.0 18.4 10.5 48 6.3 WSW 20 30 11 16 1014.2 1014.2 0.4
27/04:30pm 22.2 18.4 11.0 49 6.2 WSW 22 30 12 16 1013.9 1013.9 0.4
27/04:00pm 23.1 19.1 10.5 45 7.0 WSW 22 32 12 17 1013.6 1013.6 0.4
27/03:30pm 23.4 19.7 11.5 47 6.7 WSW 22 30 12 16 1013.4 1013.4 0.4
27/03:00pm 23.4 20.0 12.4 50 6.3 WSW 22 35 12 19 1013.4 1013.4 0.4
27/02:30pm 22.8 19.5 11.5 49 6.3 WSW 20 46 11 25 1013.4 1013.4 0.4
27/02:00pm 23.5 19.3 11.2 46 6.9 WSW 24 35 13 19 1013.8 1013.8 0.4
27/01:30pm 24.5 21.1 11.1 43 7.5 SW 20 32 11 17 1013.6 1013.6 0.4
27/01:00pm 23.3 19.2 10.0 43 7.3 W 22 32 12 17 1013.8 1013.8 0.4
27/12:30pm 24.3 20.6 11.6 45 7.2 WSW 22 35 12 19 1013.7 1013.7 0.4
27/12:00pm 23.2 19.0 9.6 42 7.4 W 22 35 12 19 1013.9 1013.9 0.4
27/11:30am 23.9 20.5 11.3 45 7.1 W 20 35 11 19 1014.1 1014.1 0.4
27/11:00am 24.7 21.7 12.0 45 7.2 W 19 30 10 16 1014.2 1014.2 0.4
27/10:30am 24.7 22.3 12.6 47 7.0 W 17 24 9 13 1014.4 1014.4 0.4
27/10:00am 22.2 19.3 12.2 53 5.7 W 19 28 10 15 1014.5 1014.5 0.4
27/09:30am 21.9 19.5 12.5 55 5.3 WNW 17 22 9 12 1014.6 1014.6 0.4
27/09:00am 20.9 18.9 13.8 64 4.1 NW 17 24 9 13 1014.7 1014.7 1.8
27/08:30am 21.0 20.0 14.6 67 3.8 NW 13 20 7 11 1014.5 1014.5 1.8
27/08:00am 19.4 18.4 14.6 74 2.8 NNW 13 19 7 10 1014.6 1014.6 1.8
27/07:30am 17.0 17.2 14.6 86 1.4 NNW 7 9 4 5 1014.7 1014.7 1.8
27/07:00am 16.1 16.2 14.5 90 0.9 NNW 7 9 4 5 1014.6 1014.6 1.8
27/06:30am 14.6 14.3 13.3 92 0.7 NNW 7 9 4 5 1014.4 1014.4 1.8
27/06:00am 13.4 12.9 12.1 92 0.7 NNW 6 7 3 4 1014.4 1014.4 1.8
27/05:30am 12.4 11.4 11.1 92 0.7 NNW 7 9 4 5 1014.0 1014.0 1.8
27/05:00am 12.0 10.9 10.6 91 0.7 NNW 7 9 4 5 1013.7 1013.7 1.8

Latest Capital City Observations: Canberra | Sydney | Melbourne | Brisbane | Adelaide | Perth | Hobart | Darwin

Other formats

Comma delimited format used in spreadsheet applications
http://www.bom.gov.au/fwo/IDW60901/IDW60901.94612.axf

JavaScript Object Notation format (JSON) in row-major order
http://www.bom.gov.au/fwo/IDW60901/IDW60901.94612.json

Data quality

Most of these data are generated automatically and are frequently updated. Quality checks on data are not normally performed. It is possible for incorrect values to appear. Refer to information at About Latest Weather Observations and please check the disclaimer before using these data.